DRI-NNSC Building Weather observations

Data are for 10 minute period ending at time listed.
 Day   Time   Solar   Ave.   Ave.  Ave.  Vector  Max.   Baro.   Total    
  of    of     Rad.   Air    Rel.  Wind   Wind   Wind  Press.  Precip.   
Year   Day            Temp.  Hum.  Speed  Dir.   Gust                    
2014   (PST)  Kw/m2    F      %     mph   deg.    mph    mb.     in.     
-------------------------------------------------------------------------
 113   10:20   0.85   48.7    29    4.6   134     10   848.9    0.00 
 113   10:30   0.86   48.3    29    3.5   147     10   848.9    0.00 
 113   10:40   0.88   50.0    28    4.2   161      9   848.8    0.00 
 113   10:50   0.89   49.2    28    4.2   256      8   848.7    0.00 
 113   11:00   0.90   50.1    28    4.1   217      8   848.8    0.00 
 113   11:10   0.91   50.0    27    3.3   119     11   848.7    0.00 
 113   11:20   0.92   50.6    27    3.4   114      8   848.6    0.00 
 113   11:30   0.92   53.2    25    2.8   167      8   848.5    0.00 
 113   11:40   0.93   52.5    26    3.1   170      6   848.4    0.00 
 113   11:50   0.93   53.0    25    3.5   181      8   848.2    0.00 
 113   12:00   0.94   54.0    24    2.8   198     10   848.1    0.00 
 113   12:10   0.91   54.7    24    3.0   220      9   848.0    0.00 
 113   12:20   0.93   53.3    25    4.3   242      9   848.0    0.00 
 113   12:30   0.92   54.0    25    3.7   257     12   847.9    0.00 
 113   12:40   0.92   55.0    24    2.5   291      7   847.9    0.00 
 113   12:50   0.93   54.7    24    3.8   263     12   847.9    0.00 
 113   13:00   0.92   55.4    23    3.1   110      6   847.9    0.00 
 113   13:10   0.89   56.1    23    5.0   250     10   847.8    0.00 
 113   13:20   0.88   57.1    23    5.6   199     10   847.7    0.00 
 113   13:30   0.87   58.5    22    5.9   173     14   847.6    0.00 
 113   13:40   0.88   59.1    21    7.2   159     13   847.5    0.00 
 113   13:50   0.85   59.9    21    6.3   160     13   847.3    0.00 
 113   14:00   0.78   58.9    21    5.4   139     14   847.2    0.00 
 113   14:10   0.50   58.4    22    4.0   191     10   847.2    0.00 
 113   14:20   0.45   58.4    22    2.9   186      9   847.1    0.00 
 113   14:30   0.21   57.6    24    7.0   318     17   847.1    0.00 
 113   14:40   0.35   57.8    24    7.7   334     16   847.0    0.00 
 113   14:50   0.49   59.0    24    7.5   327     16   846.9    0.00 
 113   15:00   0.31   57.8    25    8.9   327     18   846.8    0.00 
 113   15:10   0.16   57.2    25   10.5   305     25   846.8    0.00 
 113   15:20   0.42   57.9    25    6.9   314     14   846.8    0.00 
 113   15:30   0.28   58.7    26    7.4   286     14   846.8    0.00 
 113   15:40   0.26   59.0    26    6.8   255     15   846.8    0.00 
 113   15:50   0.48   58.7    26    9.5   235     19   846.9    0.00 
 113   16:00   0.65   60.3    25    7.5   241     16   846.9    0.00 
 113   16:10   0.58   59.6    26   10.8   240     23   846.9    0.00 
 113   16:20   0.53   59.6    26    7.7   239     14   847.0    0.00 
 113   16:30   0.44   60.0    25    6.8   255     14   847.0    0.00 
 113   16:40   0.34   59.0    27   10.0   248     20   847.0    0.00 
 113   16:50   0.32   59.2    26    7.1   283     14   847.0    0.00 
 113   17:00   0.27   58.6    27    9.5   253     18   847.1    0.00 
 113   17:10   0.26   58.3    28    8.7   260     18   847.0    0.00 
 113   17:20   0.23   58.0    28    9.2   249     17   847.0    0.00 
 113   17:30   0.20   57.4    29    9.9   244     20   847.0    0.00 
 113   17:40   0.14   56.8    30   10.4   258     19   847.1    0.00 
 113   17:50   0.14   56.4    30   11.0   264     19   847.0    0.00 
 113   18:00   0.11   56.0    31   11.4   266     20   847.1    0.00 
 113   18:10   0.09   55.4    32   10.6   260     21   847.2    0.00 
 113   18:20   0.05   54.6    33   11.1   253     21   847.2    0.00 
 113   18:30   0.02   53.7    34   10.4   248     20   847.2    0.00 
 113   18:40   0.01   53.2    35   10.7   250     22   847.2    0.00 
 113   18:50   0.00   52.6    36   11.2   248     22   847.3    0.00 
 113   19:00   0.00   52.2    37   11.0   254     21   847.5    0.00 
 113   19:10   0.00   51.7    38   11.1   254     23   847.5    0.00 
 113   19:20   0.00   51.4    39   11.3   261     22   847.6    0.00 
 113   19:30   0.00   50.9    40   12.4   256     24   847.7    0.00 
 113   19:40   0.00   50.3    42   11.7   257     23   847.8    0.00 
 113   19:50   0.00   49.9    43   11.4   264     22   848.0    0.00 
 113   20:00   0.00   49.7    43    9.7   269     20   848.1    0.00 
 113   20:10   0.00   49.5    43    9.7   300     21   848.3    0.00 
 113   20:20   0.00   49.7    41    8.6   298     16   848.3    0.00 
 113   20:30   0.00   49.7    40    9.8   320     20   848.3    0.00 
 113   20:40   0.00   49.4    40    6.5   315     12   848.3    0.00 
 113   20:50   0.00   49.4    39    7.9   311     14   848.3    0.00 
 113   21:00   0.00   49.5    38    6.1   304     14   848.5    0.00 
 113   21:10   0.00   49.0    40    4.2   304      9   848.7    0.00 
 113   21:20   0.00   48.7    41    3.8   300      9   848.8    0.00 
 113   21:30   0.00   49.1    39    5.5   258     10   848.8    0.00 
 113   21:40   0.00   49.0    40    3.7   252      8   848.8    0.00 
 113   21:50   0.00   48.7    40    3.0   253      7   848.7    0.00 
 113   22:00   0.00   48.7    40    4.8   291     12   848.7    0.00 
 113   22:10   0.00   47.6    44    6.1   320     12   848.6    0.00 
 113   22:20   0.00   47.4    45    4.8   330      9   848.7    0.00 
 113   22:30   0.00   47.5    44    4.2   320     10   848.5    0.00 
 113   22:40   0.00   49.3    38    4.8   302     13   848.4    0.00 
 113   22:50   0.00   49.3    38    3.5   334      7   848.3    0.00 
 113   23:00   0.00   49.0    39    3.2   333      8   848.4    0.00 
 113   23:10   0.00   49.0    39    6.5   314     12   848.5    0.00 
 113   23:20   0.00   48.9    39    4.3   295      9   848.8    0.00 
 113   23:30   0.00   47.9    42    2.9   320      6   848.8    0.00 
 113   23:40   0.00   49.4    36    4.5   306      9   848.7    0.00 
 113   23:50   0.00   48.8    37    6.0   237     13   848.7    0.00 
 114    0:00   0.00   48.8    37    6.9   261     14   848.6    0.00 
 114    0:10   0.00   48.8    37    6.6   293     13   848.6    0.00 
 114    0:20   0.00   49.3    37    5.6   326     11   848.5    0.00 
 114    0:30   0.00   49.1    38    5.3   355      9   848.5    0.00 
 114    0:40   0.00   49.3    38    3.8    39     12   848.5    0.00 
 114    0:50   0.00   48.3    41    6.8   332     13   848.5    0.00 
 114    1:00   0.00   48.2    41    4.3   322     12   848.2    0.00 
 114    1:10   0.00   47.5    44    4.8   292     10   848.2    0.00 
 114    1:20   0.00   46.8    45    3.4   303      9   848.1    0.00 
 114    1:30   0.00   46.6    46    1.6   281      5   848.0    0.00 
 114    1:40   0.00   46.8    45    4.3   225      8   848.1    0.00 
 114    1:50   0.00   48.5    39    6.7   250     15   848.0    0.00 
 114    2:00   0.00   49.1    37    3.1   264      7   848.1    0.00 
 114    2:10   0.00   47.2    43    4.1     5      7   848.1    0.00 
 114    2:20   0.00   46.1    46    4.3    48      7   847.9    0.00 
 114    2:30   0.00   45.7    47    3.1   112      5   847.9    0.00 
 114    2:40   0.00   45.7    49    3.0   107      6   848.0    0.00 
 114    2:50   0.00   46.1    47    1.7   198      4   848.1    0.00 
 114    3:00   0.00   46.2    46    3.9   241      7   848.1    0.00 
 114    3:10   0.00   46.1    46    4.4   239      7   848.1    0.00 
 114    3:20   0.00   46.4    45    3.9   232      8   848.1    0.00 
 114    3:30   0.00   47.8    44    6.5   235     18   848.1    0.00 
 114    3:40   0.00   48.7    43   13.7   228     22   848.1    0.00 
 114    3:50   0.00   48.4    43    8.5   238     13   848.2    0.00 
 114    4:00   0.00   48.4    43    6.2   248     11   848.2    0.00 
 114    4:10   0.00   48.4    44    5.3   242     10   848.0    0.00 
 114    4:20   0.00   48.3    44    6.7   248     13   848.0    0.00 
 114    4:30   0.00   48.5    43    3.5   235      9   848.0    0.00 
 114    4:40   0.00   48.4    43    1.8   152      6   848.1    0.00 
 114    4:50   0.00   48.3    43    5.2   255     14   848.1    0.00 
 114    5:00   0.00   48.4    42    2.3   272      6   848.1    0.00 
 114    5:10   0.00   48.1    43    3.7   121      8   848.1    0.00 
 114    5:20   0.01   48.1    43    4.4   155     10   848.1    0.00 
 114    5:30   0.01   48.4    44    5.0   139     11   848.1    0.00 
 114    5:40   0.01   48.0    45    3.5   190      8   848.1    0.00 
 114    5:50   0.05   47.3    46    2.6   164      7   848.1    0.00 
 114    6:00   0.07   48.1    45    1.3   158      3   848.2    0.00 
 114    6:10   0.06   47.3    46    2.9   126      4   848.3    0.00 
 114    6:20   0.09   47.2    46    3.6   140      5   848.5    0.00 
 114    6:30   0.17   48.1    45    3.1   154      5   848.5    0.00 
 114    6:40   0.22   49.3    43    2.3   168      4   848.4    0.00 
 114    6:50   0.20   49.4    44    1.5   183      4   848.3    0.00 
 114    7:00   0.25   50.1    42    2.0   188      5   848.3    0.00 
 114    7:10   0.30   50.0    41    1.5   224      4   848.4    0.00 
 114    7:20   0.34   50.9    40    3.2   172      8   848.3    0.00 
 114    7:30   0.39   51.3    39    3.0   139      5   848.3    0.00 
 114    7:40   0.41   52.4    38    3.4   115      8   848.2    0.00 
 114    7:50   0.43   53.0    36    4.4   124      8   848.2    0.00 
 114    8:00   0.48   54.1    34    3.9   110      8   848.2    0.00 
 114    8:10   0.50   54.1    35    3.2   161      6   848.2    0.00 
 114    8:20   0.44   55.2    34    4.3   156     10   848.2    0.00 
 114    8:30   0.50   55.7    34    3.6   186      9   848.3    0.00 
 114    8:40   0.58   56.3    33    4.7   200     10   848.2    0.00 
 114    8:50   0.55   56.4    31    8.8   221     21   848.1    0.00 
 114    9:00   0.57   56.8    29   13.2   229     24   848.0    0.00 
 114    9:10   0.59   56.7    29   13.5   221     23   847.9    0.00 
 114    9:20   0.66   56.8    30   16.1   229     26   847.9    0.00 
 114    9:30   0.71   57.8    29   13.8   241     25   847.9    0.00 
 114    9:40   0.77   57.5    30   14.3   235     25   848.0    0.00 
 114    9:50   0.80   58.4    30   13.7   254     24   847.9    0.00 
 114   10:00   0.81   58.9    29   13.0   252     23   847.9    0.00 
 114   10:10   0.75   59.2    28   13.2   236     26   847.9    0.00 

Return to NNSC graphs page.


Western Regional Climate Center,wrcc@dri.edu